sensor_id;sensor_type;location;lat;lon;timestamp;P1;durP1;ratioP1;P2;durP2;ratioP2
11008;SDS011;5557;51.670;7.788;2023-12-04T00:00:36;12.83;;;11.73;;
11008;SDS011;5557;51.670;7.788;2023-12-04T00:03:03;13.23;;;12.03;;
11008;SDS011;5557;51.670;7.788;2023-12-04T00:05:30;13.27;;;12.03;;
11008;SDS011;5557;51.670;7.788;2023-12-04T00:07:57;12.50;;;11.50;;
11008;SDS011;5557;51.670;7.788;2023-12-04T00:10:24;12.93;;;11.73;;
11008;SDS011;5557;51.670;7.788;2023-12-04T00:12:51;12.27;;;11.27;;
11008;SDS011;5557;51.670;7.788;2023-12-04T00:15:19;13.33;;;12.17;;
11008;SDS011;5557;51.670;7.788;2023-12-04T00:17:47;12.47;;;11.47;;
11008;SDS011;5557;51.670;7.788;2023-12-04T00:20:14;13.27;;;12.10;;
11008;SDS011;5557;51.670;7.788;2023-12-04T00:22:41;12.20;;;11.20;;
11008;SDS011;5557;51.670;7.788;2023-12-04T00:25:08;13.13;;;12.00;;
11008;SDS011;5557;51.670;7.788;2023-12-04T00:27:35;12.57;;;11.43;;
11008;SDS011;5557;51.670;7.788;2023-12-04T00:30:02;12.03;;;11.13;;
11008;SDS011;5557;51.670;7.788;2023-12-04T00:32:31;13.10;;;11.90;;
11008;SDS011;5557;51.670;7.788;2023-12-04T00:34:58;13.37;;;12.17;;
11008;SDS011;5557;51.670;7.788;2023-12-04T00:37:26;12.37;;;11.37;;
11008;SDS011;5557;51.670;7.788;2023-12-04T00:39:53;12.70;;;11.73;;
11008;SDS011;5557;51.670;7.788;2023-12-04T00:42:20;13.37;;;12.07;;
11008;SDS011;5557;51.670;7.788;2023-12-04T00:44:47;11.20;;;10.40;;
11008;SDS011;5557;51.670;7.788;2023-12-04T00:47:15;13.33;;;12.03;;
11008;SDS011;5557;51.670;7.788;2023-12-04T00:49:42;12.73;;;11.43;;
11008;SDS011;5557;51.670;7.788;2023-12-04T00:52:09;12.17;;;11.27;;
11008;SDS011;5557;51.670;7.788;2023-12-04T00:54:38;12.17;;;11.07;;
11008;SDS011;5557;51.670;7.788;2023-12-04T00:57:07;11.90;;;10.90;;
11008;SDS011;5557;51.670;7.788;2023-12-04T00:59:35;13.13;;;11.97;;
11008;SDS011;5557;51.670;7.788;2023-12-04T01:02:02;12.37;;;11.30;;
11008;SDS011;5557;51.670;7.788;2023-12-04T01:04:30;12.47;;;11.43;;
11008;SDS011;5557;51.670;7.788;2023-12-04T01:06:58;12.70;;;11.63;;
11008;SDS011;5557;51.670;7.788;2023-12-04T01:09:25;13.33;;;12.23;;
11008;SDS011;5557;51.670;7.788;2023-12-04T01:11:53;12.07;;;11.07;;
11008;SDS011;5557;51.670;7.788;2023-12-04T01:14:20;13.47;;;11.90;;
11008;SDS011;5557;51.670;7.788;2023-12-04T01:16:48;12.60;;;11.60;;
11008;SDS011;5557;51.670;7.788;2023-12-04T01:19:14;12.40;;;11.40;;
11008;SDS011;5557;51.670;7.788;2023-12-04T01:21:42;12.60;;;11.50;;
11008;SDS011;5557;51.670;7.788;2023-12-04T01:24:09;11.83;;;10.73;;
11008;SDS011;5557;51.670;7.788;2023-12-04T01:26:36;12.50;;;11.40;;
11008;SDS011;5557;51.670;7.788;2023-12-04T01:29:03;20.30;;;11.90;;
11008;SDS011;5557;51.670;7.788;2023-12-04T01:31:30;12.23;;;11.13;;
11008;SDS011;5557;51.670;7.788;2023-12-04T01:33:58;13.20;;;11.90;;
11008;SDS011;5557;51.670;7.788;2023-12-04T01:36:26;12.17;;;11.20;;
11008;SDS011;5557;51.670;7.788;2023-12-04T01:38:53;11.63;;;10.67;;
11008;SDS011;5557;51.670;7.788;2023-12-04T01:41:20;11.77;;;10.77;;
11008;SDS011;5557;51.670;7.788;2023-12-04T01:43:47;12.37;;;10.80;;
11008;SDS011;5557;51.670;7.788;2023-12-04T01:46:15;11.73;;;10.83;;
11008;SDS011;5557;51.670;7.788;2023-12-04T01:48:44;11.10;;;10.20;;
11008;SDS011;5557;51.670;7.788;2023-12-04T01:51:13;12.73;;;11.63;;
11008;SDS011;5557;51.670;7.788;2023-12-04T01:53:40;11.13;;;10.33;;
11008;SDS011;5557;51.670;7.788;2023-12-04T01:56:09;10.57;;;9.80;;
11008;SDS011;5557;51.670;7.788;2023-12-04T01:58:36;12.00;;;10.77;;
11008;SDS011;5557;51.670;7.788;2023-12-04T02:01:04;11.50;;;10.70;;
11008;SDS011;5557;51.670;7.788;2023-12-04T02:03:32;10.70;;;10.00;;
11008;SDS011;5557;51.670;7.788;2023-12-04T02:06:00;12.07;;;10.67;;
11008;SDS011;5557;51.670;7.788;2023-12-04T02:08:30;11.00;;;10.10;;
11008;SDS011;5557;51.670;7.788;2023-12-04T02:10:58;10.97;;;10.17;;
11008;SDS011;5557;51.670;7.788;2023-12-04T02:13:26;10.07;;;9.37;;
11008;SDS011;5557;51.670;7.788;2023-12-04T02:15:54;10.23;;;9.53;;
11008;SDS011;5557;51.670;7.788;2023-12-04T02:18:24;10.17;;;9.47;;
11008;SDS011;5557;51.670;7.788;2023-12-04T02:20:53;10.83;;;9.60;;
11008;SDS011;5557;51.670;7.788;2023-12-04T02:23:20;11.00;;;10.10;;
11008;SDS011;5557;51.670;7.788;2023-12-04T02:25:47;10.53;;;9.70;;
11008;SDS011;5557;51.670;7.788;2023-12-04T02:28:14;10.13;;;9.43;;
11008;SDS011;5557;51.670;7.788;2023-12-04T02:30:43;9.20;;;8.60;;
11008;SDS011;5557;51.670;7.788;2023-12-04T02:33:12;9.70;;;9.07;;
11008;SDS011;5557;51.670;7.788;2023-12-04T02:35:41;9.83;;;9.03;;
11008;SDS011;5557;51.670;7.788;2023-12-04T02:38:09;8.77;;;8.17;;
11008;SDS011;5557;51.670;7.788;2023-12-04T02:40:36;8.40;;;7.93;;
11008;SDS011;5557;51.670;7.788;2023-12-04T02:43:03;8.97;;;8.37;;
11008;SDS011;5557;51.670;7.788;2023-12-04T02:45:30;9.90;;;9.20;;
11008;SDS011;5557;51.670;7.788;2023-12-04T02:47:57;9.20;;;8.60;;
11008;SDS011;5557;51.670;7.788;2023-12-04T02:50:24;8.23;;;7.73;;
11008;SDS011;5557;51.670;7.788;2023-12-04T02:52:51;8.00;;;7.40;;
11008;SDS011;5557;51.670;7.788;2023-12-04T02:55:18;8.93;;;8.40;;
11008;SDS011;5557;51.670;7.788;2023-12-04T02:57:45;8.10;;;7.60;;
11008;SDS011;5557;51.670;7.788;2023-12-04T03:00:12;7.93;;;7.40;;
11008;SDS011;5557;51.670;7.788;2023-12-04T03:02:39;7.30;;;6.70;;
11008;SDS011;5557;51.670;7.788;2023-12-04T03:05:06;7.37;;;6.90;;
11008;SDS011;5557;51.670;7.788;2023-12-04T03:07:33;7.13;;;6.73;;
11008;SDS011;5557;51.670;7.788;2023-12-04T03:10:00;7.50;;;7.00;;
11008;SDS011;5557;51.670;7.788;2023-12-04T03:12:27;8.73;;;8.17;;
11008;SDS011;5557;51.670;7.788;2023-12-04T03:14:54;8.20;;;7.60;;
11008;SDS011;5557;51.670;7.788;2023-12-04T03:17:21;12.30;;;7.63;;
11008;SDS011;5557;51.670;7.788;2023-12-04T03:19:49;7.63;;;7.23;;
11008;SDS011;5557;51.670;7.788;2023-12-04T03:22:17;7.30;;;6.90;;
11008;SDS011;5557;51.670;7.788;2023-12-04T03:24:44;7.90;;;7.40;;
11008;SDS011;5557;51.670;7.788;2023-12-04T03:27:11;6.50;;;6.10;;
11008;SDS011;5557;51.670;7.788;2023-12-04T03:29:38;6.63;;;6.33;;
11008;SDS011;5557;51.670;7.788;2023-12-04T03:32:05;7.67;;;7.17;;
11008;SDS011;5557;51.670;7.788;2023-12-04T03:34:35;7.40;;;6.80;;
11008;SDS011;5557;51.670;7.788;2023-12-04T03:37:02;7.90;;;7.30;;
11008;SDS011;5557;51.670;7.788;2023-12-04T03:39:29;6.60;;;6.40;;
11008;SDS011;5557;51.670;7.788;2023-12-04T03:41:57;7.00;;;6.60;;
11008;SDS011;5557;51.670;7.788;2023-12-04T03:44:24;7.40;;;7.00;;
11008;SDS011;5557;51.670;7.788;2023-12-04T03:46:51;6.40;;;6.10;;
11008;SDS011;5557;51.670;7.788;2023-12-04T03:49:21;7.00;;;6.60;;
11008;SDS011;5557;51.670;7.788;2023-12-04T03:51:53;6.10;;;5.80;;
11008;SDS011;5557;51.670;7.788;2023-12-04T03:54:20;6.70;;;6.40;;
11008;SDS011;5557;51.670;7.788;2023-12-04T03:56:49;6.80;;;6.50;;
11008;SDS011;5557;51.670;7.788;2023-12-04T03:59:16;6.47;;;6.23;;
11008;SDS011;5557;51.670;7.788;2023-12-04T04:01:46;6.93;;;6.57;;
11008;SDS011;5557;51.670;7.788;2023-12-04T04:04:13;6.27;;;5.97;;
11008;SDS011;5557;51.670;7.788;2023-12-04T04:06:41;7.10;;;6.80;;
11008;SDS011;5557;51.670;7.788;2023-12-04T04:09:08;6.47;;;6.27;;
11008;SDS011;5557;51.670;7.788;2023-12-04T04:11:36;5.80;;;5.50;;
11008;SDS011;5557;51.670;7.788;2023-12-04T04:14:06;5.93;;;5.70;;
11008;SDS011;5557;51.670;7.788;2023-12-04T04:16:33;5.80;;;5.60;;
11008;SDS011;5557;51.670;7.788;2023-12-04T04:19:00;6.63;;;6.23;;
11008;SDS011;5557;51.670;7.788;2023-12-04T04:21:28;5.73;;;5.50;;
11008;SDS011;5557;51.670;7.788;2023-12-04T04:23:55;5.77;;;5.57;;
11008;SDS011;5557;51.670;7.788;2023-12-04T04:26:23;6.07;;;5.77;;
11008;SDS011;5557;51.670;7.788;2023-12-04T04:28:50;5.27;;;5.07;;
11008;SDS011;5557;51.670;7.788;2023-12-04T04:31:17;6.00;;;5.70;;
11008;SDS011;5557;51.670;7.788;2023-12-04T04:33:44;5.23;;;5.03;;
11008;SDS011;5557;51.670;7.788;2023-12-04T04:36:12;5.20;;;5.00;;
11008;SDS011;5557;51.670;7.788;2023-12-04T04:38:39;4.50;;;4.40;;
11008;SDS011;5557;51.670;7.788;2023-12-04T04:41:12;5.93;;;5.53;;
11008;SDS011;5557;51.670;7.788;2023-12-04T04:43:44;5.27;;;5.03;;
11008;SDS011;5557;51.670;7.788;2023-12-04T04:46:11;5.60;;;5.40;;
11008;SDS011;5557;51.670;7.788;2023-12-04T04:48:38;5.77;;;5.57;;
11008;SDS011;5557;51.670;7.788;2023-12-04T04:51:09;5.57;;;5.37;;
11008;SDS011;5557;51.670;7.788;2023-12-04T04:53:39;6.10;;;5.70;;
11008;SDS011;5557;51.670;7.788;2023-12-04T04:56:07;6.13;;;5.83;;
11008;SDS011;5557;51.670;7.788;2023-12-04T04:58:35;5.93;;;5.57;;
11008;SDS011;5557;51.670;7.788;2023-12-04T05:01:02;5.40;;;5.20;;
11008;SDS011;5557;51.670;7.788;2023-12-04T05:03:29;5.40;;;5.20;;
11008;SDS011;5557;51.670;7.788;2023-12-04T05:05:57;5.10;;;4.90;;
11008;SDS011;5557;51.670;7.788;2023-12-04T05:08:24;4.93;;;4.83;;
11008;SDS011;5557;51.670;7.788;2023-12-04T05:10:51;5.00;;;4.80;;
11008;SDS011;5557;51.670;7.788;2023-12-04T05:13:18;4.73;;;4.63;;
11008;SDS011;5557;51.670;7.788;2023-12-04T05:15:45;5.30;;;5.10;;
11008;SDS011;5557;51.670;7.788;2023-12-04T05:18:12;4.93;;;4.63;;
11008;SDS011;5557;51.670;7.788;2023-12-04T05:20:39;4.80;;;4.60;;
11008;SDS011;5557;51.670;7.788;2023-12-04T05:23:06;5.00;;;4.80;;
11008;SDS011;5557;51.670;7.788;2023-12-04T05:25:33;4.27;;;4.17;;
11008;SDS011;5557;51.670;7.788;2023-12-04T05:28:10;4.70;;;4.50;;
11008;SDS011;5557;51.670;7.788;2023-12-04T05:30:37;5.00;;;4.80;;
11008;SDS011;5557;51.670;7.788;2023-12-04T05:33:05;4.80;;;4.70;;
11008;SDS011;5557;51.670;7.788;2023-12-04T05:35:33;5.00;;;4.80;;
11008;SDS011;5557;51.670;7.788;2023-12-04T05:38:01;4.40;;;4.30;;
11008;SDS011;5557;51.670;7.788;2023-12-04T05:40:28;3.87;;;3.77;;
11008;SDS011;5557;51.670;7.788;2023-12-04T05:42:55;5.30;;;5.00;;
11008;SDS011;5557;51.670;7.788;2023-12-04T05:45:22;4.80;;;4.60;;
11008;SDS011;5557;51.670;7.788;2023-12-04T05:47:49;4.53;;;4.37;;
11008;SDS011;5557;51.670;7.788;2023-12-04T05:50:16;4.23;;;4.03;;
11008;SDS011;5557;51.670;7.788;2023-12-04T05:52:43;5.13;;;4.83;;
11008;SDS011;5557;51.670;7.788;2023-12-04T05:55:10;4.90;;;4.80;;
11008;SDS011;5557;51.670;7.788;2023-12-04T05:57:38;4.70;;;4.50;;
11008;SDS011;5557;51.670;7.788;2023-12-04T06:00:06;4.40;;;4.30;;
11008;SDS011;5557;51.670;7.788;2023-12-04T06:02:39;4.13;;;4.03;;
11008;SDS011;5557;51.670;7.788;2023-12-04T06:05:07;4.73;;;4.57;;
11008;SDS011;5557;51.670;7.788;2023-12-04T06:07:35;4.13;;;4.03;;
11008;SDS011;5557;51.670;7.788;2023-12-04T06:10:03;4.00;;;3.90;;
11008;SDS011;5557;51.670;7.788;2023-12-04T06:12:31;3.90;;;3.80;;
11008;SDS011;5557;51.670;7.788;2023-12-04T06:14:58;3.80;;;3.70;;
11008;SDS011;5557;51.670;7.788;2023-12-04T06:17:25;3.70;;;3.60;;
11008;SDS011;5557;51.670;7.788;2023-12-04T06:19:53;4.50;;;4.30;;
11008;SDS011;5557;51.670;7.788;2023-12-04T06:22:20;3.53;;;3.43;;
11008;SDS011;5557;51.670;7.788;2023-12-04T06:24:48;3.70;;;3.57;;
11008;SDS011;5557;51.670;7.788;2023-12-04T06:27:16;3.93;;;3.83;;
11008;SDS011;5557;51.670;7.788;2023-12-04T06:29:47;3.73;;;3.63;;
11008;SDS011;5557;51.670;7.788;2023-12-04T06:32:18;3.80;;;3.70;;
11008;SDS011;5557;51.670;7.788;2023-12-04T06:34:49;3.30;;;3.20;;
11008;SDS011;5557;51.670;7.788;2023-12-04T06:37:18;3.90;;;3.70;;
11008;SDS011;5557;51.670;7.788;2023-12-04T06:39:45;3.97;;;3.87;;
11008;SDS011;5557;51.670;7.788;2023-12-04T06:42:16;3.60;;;3.50;;
11008;SDS011;5557;51.670;7.788;2023-12-04T06:44:43;3.60;;;3.40;;
11008;SDS011;5557;51.670;7.788;2023-12-04T06:47:11;3.60;;;3.50;;
11008;SDS011;5557;51.670;7.788;2023-12-04T06:49:42;3.70;;;3.60;;
11008;SDS011;5557;51.670;7.788;2023-12-04T06:52:10;3.50;;;3.40;;
11008;SDS011;5557;51.670;7.788;2023-12-04T06:54:37;3.60;;;3.40;;
11008;SDS011;5557;51.670;7.788;2023-12-04T06:57:04;3.80;;;3.60;;
11008;SDS011;5557;51.670;7.788;2023-12-04T06:59:31;3.87;;;3.67;;
11008;SDS011;5557;51.670;7.788;2023-12-04T07:01:58;4.17;;;3.97;;
11008;SDS011;5557;51.670;7.788;2023-12-04T07:04:25;3.90;;;3.80;;
11008;SDS011;5557;51.670;7.788;2023-12-04T07:06:52;4.73;;;3.83;;
11008;SDS011;5557;51.670;7.788;2023-12-04T07:09:20;3.50;;;3.40;;
11008;SDS011;5557;51.670;7.788;2023-12-04T07:11:47;3.10;;;3.00;;
11008;SDS011;5557;51.670;7.788;2023-12-04T07:14:14;4.00;;;3.80;;
11008;SDS011;5557;51.670;7.788;2023-12-04T07:16:41;3.20;;;3.10;;
11008;SDS011;5557;51.670;7.788;2023-12-04T07:19:09;3.90;;;3.70;;
11008;SDS011;5557;51.670;7.788;2023-12-04T07:21:37;3.80;;;3.70;;
11008;SDS011;5557;51.670;7.788;2023-12-04T07:24:05;4.57;;;4.30;;
11008;SDS011;5557;51.670;7.788;2023-12-04T07:26:33;3.70;;;3.60;;
11008;SDS011;5557;51.670;7.788;2023-12-04T07:29:02;3.27;;;3.10;;
11008;SDS011;5557;51.670;7.788;2023-12-04T07:31:30;3.70;;;3.60;;
11008;SDS011;5557;51.670;7.788;2023-12-04T07:34:06;4.43;;;4.13;;
11008;SDS011;5557;51.670;7.788;2023-12-04T07:36:33;4.20;;;3.90;;
11008;SDS011;5557;51.670;7.788;2023-12-04T07:39:01;4.50;;;4.30;;
11008;SDS011;5557;51.670;7.788;2023-12-04T07:41:29;3.90;;;3.80;;
11008;SDS011;5557;51.670;7.788;2023-12-04T07:43:56;4.50;;;4.13;;
11008;SDS011;5557;51.670;7.788;2023-12-04T07:46:23;4.67;;;4.37;;
11008;SDS011;5557;51.670;7.788;2023-12-04T07:48:50;4.43;;;4.17;;
11008;SDS011;5557;51.670;7.788;2023-12-04T07:51:21;3.70;;;3.60;;
11008;SDS011;5557;51.670;7.788;2023-12-04T07:53:48;5.10;;;3.77;;
11008;SDS011;5557;51.670;7.788;2023-12-04T07:56:15;4.17;;;4.07;;
11008;SDS011;5557;51.670;7.788;2023-12-04T07:58:42;4.30;;;4.10;;
11008;SDS011;5557;51.670;7.788;2023-12-04T08:01:09;5.30;;;4.20;;
11008;SDS011;5557;51.670;7.788;2023-12-04T08:03:36;4.60;;;4.33;;
11008;SDS011;5557;51.670;7.788;2023-12-04T08:06:04;5.13;;;4.93;;
11008;SDS011;5557;51.670;7.788;2023-12-04T08:08:32;4.73;;;4.40;;
11008;SDS011;5557;51.670;7.788;2023-12-04T08:10:59;4.80;;;4.53;;
11008;SDS011;5557;51.670;7.788;2023-12-04T08:13:26;5.00;;;4.80;;
11008;SDS011;5557;51.670;7.788;2023-12-04T08:15:53;4.77;;;4.30;;
11008;SDS011;5557;51.670;7.788;2023-12-04T08:18:20;4.37;;;4.20;;
11008;SDS011;5557;51.670;7.788;2023-12-04T08:20:47;6.23;;;4.50;;
11008;SDS011;5557;51.670;7.788;2023-12-04T08:23:14;6.40;;;5.87;;
11008;SDS011;5557;51.670;7.788;2023-12-04T08:25:41;5.07;;;4.80;;
11008;SDS011;5557;51.670;7.788;2023-12-04T08:28:08;4.43;;;4.23;;
11008;SDS011;5557;51.670;7.788;2023-12-04T08:30:36;9.70;;;4.90;;
11008;SDS011;5557;51.670;7.788;2023-12-04T08:33:03;4.43;;;4.23;;
11008;SDS011;5557;51.670;7.788;2023-12-04T08:35:31;4.60;;;4.50;;
11008;SDS011;5557;51.670;7.788;2023-12-04T08:37:59;5.00;;;4.63;;
11008;SDS011;5557;51.670;7.788;2023-12-04T08:40:26;4.47;;;4.27;;
11008;SDS011;5557;51.670;7.788;2023-12-04T08:42:53;5.20;;;5.00;;
11008;SDS011;5557;51.670;7.788;2023-12-04T08:45:20;5.77;;;5.33;;
11008;SDS011;5557;51.670;7.788;2023-12-04T08:47:47;5.83;;;5.23;;
11008;SDS011;5557;51.670;7.788;2023-12-04T08:50:15;5.00;;;4.80;;
11008;SDS011;5557;51.670;7.788;2023-12-04T08:52:43;4.07;;;3.77;;
11008;SDS011;5557;51.670;7.788;2023-12-04T08:55:11;4.50;;;4.40;;
11008;SDS011;5557;51.670;7.788;2023-12-04T08:57:38;4.60;;;4.23;;
11008;SDS011;5557;51.670;7.788;2023-12-04T09:00:06;4.30;;;4.10;;
11008;SDS011;5557;51.670;7.788;2023-12-04T09:02:35;6.53;;;4.43;;
11008;SDS011;5557;51.670;7.788;2023-12-04T09:05:09;5.13;;;4.93;;
11008;SDS011;5557;51.670;7.788;2023-12-04T09:07:36;5.13;;;4.73;;
11008;SDS011;5557;51.670;7.788;2023-12-04T09:10:06;5.10;;;4.97;;
11008;SDS011;5557;51.670;7.788;2023-12-04T09:12:42;4.97;;;4.67;;
11008;SDS011;5557;51.670;7.788;2023-12-04T09:15:09;4.43;;;4.23;;
11008;SDS011;5557;51.670;7.788;2023-12-04T09:17:36;4.90;;;4.60;;
11008;SDS011;5557;51.670;7.788;2023-12-04T09:20:05;4.30;;;4.00;;
11008;SDS011;5557;51.670;7.788;2023-12-04T09:22:33;5.43;;;5.03;;
11008;SDS011;5557;51.670;7.788;2023-12-04T09:25:17;4.67;;;4.47;;
11008;SDS011;5557;51.670;7.788;2023-12-04T09:27:44;4.10;;;3.80;;
11008;SDS011;5557;51.670;7.788;2023-12-04T09:30:14;4.83;;;4.43;;
11008;SDS011;5557;51.670;7.788;2023-12-04T09:32:42;4.60;;;4.40;;
11008;SDS011;5557;51.670;7.788;2023-12-04T09:35:10;4.70;;;4.50;;
11008;SDS011;5557;51.670;7.788;2023-12-04T09:37:37;6.63;;;6.00;;
11008;SDS011;5557;51.670;7.788;2023-12-04T09:40:04;3.63;;;3.50;;
11008;SDS011;5557;51.670;7.788;2023-12-04T09:42:32;4.07;;;3.97;;
11008;SDS011;5557;51.670;7.788;2023-12-04T09:44:59;3.40;;;3.30;;
11008;SDS011;5557;51.670;7.788;2023-12-04T09:47:28;8.80;;;4.43;;
11008;SDS011;5557;51.670;7.788;2023-12-04T09:49:57;4.10;;;4.00;;
11008;SDS011;5557;51.670;7.788;2023-12-04T09:52:28;3.83;;;3.67;;
11008;SDS011;5557;51.670;7.788;2023-12-04T09:54:57;7.73;;;3.93;;
11008;SDS011;5557;51.670;7.788;2023-12-04T09:57:24;4.10;;;3.90;;
11008;SDS011;5557;51.670;7.788;2023-12-04T09:59:52;3.93;;;3.73;;
11008;SDS011;5557;51.670;7.788;2023-12-04T10:02:19;3.70;;;3.60;;
11008;SDS011;5557;51.670;7.788;2023-12-04T10:04:48;4.10;;;3.90;;
11008;SDS011;5557;51.670;7.788;2023-12-04T10:07:15;4.30;;;3.90;;
11008;SDS011;5557;51.670;7.788;2023-12-04T10:09:42;4.50;;;4.20;;
11008;SDS011;5557;51.670;7.788;2023-12-04T10:12:09;4.80;;;4.50;;
11008;SDS011;5557;51.670;7.788;2023-12-04T10:14:37;5.37;;;4.87;;
11008;SDS011;5557;51.670;7.788;2023-12-04T10:17:14;4.83;;;4.53;;
11008;SDS011;5557;51.670;7.788;2023-12-04T10:19:44;4.97;;;4.77;;
11008;SDS011;5557;51.670;7.788;2023-12-04T10:22:12;6.77;;;6.33;;
11008;SDS011;5557;51.670;7.788;2023-12-04T10:24:40;6.87;;;6.20;;
11008;SDS011;5557;51.670;7.788;2023-12-04T10:27:08;5.80;;;5.30;;
11008;SDS011;5557;51.670;7.788;2023-12-04T10:29:41;5.83;;;5.53;;
11008;SDS011;5557;51.670;7.788;2023-12-04T10:32:19;5.47;;;5.10;;
11008;SDS011;5557;51.670;7.788;2023-12-04T10:34:49;5.53;;;5.10;;
11008;SDS011;5557;51.670;7.788;2023-12-04T10:37:18;6.43;;;5.87;;
11008;SDS011;5557;51.670;7.788;2023-12-04T10:39:47;6.13;;;5.60;;
11008;SDS011;5557;51.670;7.788;2023-12-04T10:42:24;5.80;;;5.40;;
11008;SDS011;5557;51.670;7.788;2023-12-04T10:44:56;5.60;;;5.10;;
11008;SDS011;5557;51.670;7.788;2023-12-04T10:47:24;5.80;;;5.40;;
11008;SDS011;5557;51.670;7.788;2023-12-04T10:49:57;5.90;;;5.50;;
11008;SDS011;5557;51.670;7.788;2023-12-04T10:52:24;6.60;;;5.53;;
11008;SDS011;5557;51.670;7.788;2023-12-04T10:54:52;4.50;;;4.30;;
11008;SDS011;5557;51.670;7.788;2023-12-04T10:57:26;5.37;;;4.93;;
11008;SDS011;5557;51.670;7.788;2023-12-04T10:59:57;5.30;;;5.10;;
11008;SDS011;5557;51.670;7.788;2023-12-04T11:02:31;5.40;;;5.20;;
11008;SDS011;5557;51.670;7.788;2023-12-04T11:05:12;5.23;;;5.00;;
11008;SDS011;5557;51.670;7.788;2023-12-04T11:07:44;7.90;;;7.10;;
11008;SDS011;5557;51.670;7.788;2023-12-04T11:10:41;10.03;;;8.63;;
11008;SDS011;5557;51.670;7.788;2023-12-04T11:13:30;13.50;;;8.50;;
11008;SDS011;5557;51.670;7.788;2023-12-04T11:16:02;7.73;;;7.13;;
11008;SDS011;5557;51.670;7.788;2023-12-04T11:19:07;5.67;;;5.37;;
11008;SDS011;5557;51.670;7.788;2023-12-04T11:22:06;5.90;;;5.10;;
11008;SDS011;5557;51.670;7.788;2023-12-04T11:24:35;5.73;;;5.43;;
11008;SDS011;5557;51.670;7.788;2023-12-04T11:27:03;5.70;;;5.50;;
11008;SDS011;5557;51.670;7.788;2023-12-04T11:29:30;6.57;;;6.10;;
11008;SDS011;5557;51.670;7.788;2023-12-04T11:32:02;7.10;;;6.67;;
11008;SDS011;5557;51.670;7.788;2023-12-04T11:34:35;5.93;;;5.50;;
11008;SDS011;5557;51.670;7.788;2023-12-04T11:37:05;8.50;;;6.20;;
11008;SDS011;5557;51.670;7.788;2023-12-04T11:39:33;6.00;;;5.60;;
11008;SDS011;5557;51.670;7.788;2023-12-04T11:42:10;6.30;;;6.00;;
11008;SDS011;5557;51.670;7.788;2023-12-04T11:44:40;6.40;;;6.00;;
11008;SDS011;5557;51.670;7.788;2023-12-04T11:47:08;8.67;;;5.77;;
11008;SDS011;5557;51.670;7.788;2023-12-04T11:49:37;6.17;;;5.77;;
11008;SDS011;5557;51.670;7.788;2023-12-04T11:52:04;6.80;;;5.63;;
11008;SDS011;5557;51.670;7.788;2023-12-04T11:57:26;7.37;;;5.83;;
11008;SDS011;5557;51.670;7.788;2023-12-04T12:00:11;6.90;;;6.30;;
11008;SDS011;5557;51.670;7.788;2023-12-04T12:02:41;7.47;;;6.87;;
11008;SDS011;5557;51.670;7.788;2023-12-04T12:05:39;6.63;;;6.20;;
11008;SDS011;5557;51.670;7.788;2023-12-04T12:08:08;5.50;;;5.27;;
11008;SDS011;5557;51.670;7.788;2023-12-04T12:10:35;6.57;;;5.60;;
11008;SDS011;5557;51.670;7.788;2023-12-04T12:13:02;6.23;;;5.93;;
11008;SDS011;5557;51.670;7.788;2023-12-04T12:15:31;5.97;;;5.47;;
11008;SDS011;5557;51.670;7.788;2023-12-04T12:18:00;5.23;;;5.00;;
11008;SDS011;5557;51.670;7.788;2023-12-04T12:20:27;7.00;;;6.50;;
11008;SDS011;5557;51.670;7.788;2023-12-04T12:22:54;5.50;;;5.30;;
11008;SDS011;5557;51.670;7.788;2023-12-04T12:25:24;6.33;;;5.97;;
11008;SDS011;5557;51.670;7.788;2023-12-04T12:27:53;5.27;;;5.07;;
11008;SDS011;5557;51.670;7.788;2023-12-04T12:30:21;6.30;;;5.73;;
11008;SDS011;5557;51.670;7.788;2023-12-04T12:32:49;5.30;;;4.90;;
11008;SDS011;5557;51.670;7.788;2023-12-04T12:35:18;6.10;;;5.80;;
11008;SDS011;5557;51.670;7.788;2023-12-04T12:37:46;5.07;;;4.87;;
11008;SDS011;5557;51.670;7.788;2023-12-04T12:40:13;5.80;;;5.60;;
11008;SDS011;5557;51.670;7.788;2023-12-04T12:42:40;5.67;;;5.00;;
11008;SDS011;5557;51.670;7.788;2023-12-04T12:45:11;6.20;;;5.60;;
11008;SDS011;5557;51.670;7.788;2023-12-04T12:47:42;5.47;;;5.13;;
11008;SDS011;5557;51.670;7.788;2023-12-04T12:50:10;7.53;;;6.20;;
11008;SDS011;5557;51.670;7.788;2023-12-04T12:52:40;5.97;;;5.67;;
11008;SDS011;5557;51.670;7.788;2023-12-04T12:55:09;6.03;;;5.73;;
11008;SDS011;5557;51.670;7.788;2023-12-04T12:57:36;5.67;;;5.27;;
11008;SDS011;5557;51.670;7.788;2023-12-04T13:00:07;7.17;;;5.70;;
11008;SDS011;5557;51.670;7.788;2023-12-04T13:02:35;6.30;;;5.90;;
11008;SDS011;5557;51.670;7.788;2023-12-04T13:05:05;5.40;;;5.00;;
11008;SDS011;5557;51.670;7.788;2023-12-04T13:07:33;6.03;;;5.53;;
11008;SDS011;5557;51.670;7.788;2023-12-04T13:10:00;5.83;;;5.43;;
11008;SDS011;5557;51.670;7.788;2023-12-04T13:12:27;5.27;;;4.97;;
11008;SDS011;5557;51.670;7.788;2023-12-04T13:14:54;6.40;;;6.00;;
11008;SDS011;5557;51.670;7.788;2023-12-04T13:17:21;6.80;;;6.10;;
11008;SDS011;5557;51.670;7.788;2023-12-04T13:19:48;6.90;;;6.50;;
11008;SDS011;5557;51.670;7.788;2023-12-04T13:22:15;6.70;;;6.20;;
11008;SDS011;5557;51.670;7.788;2023-12-04T13:24:42;5.57;;;5.27;;
11008;SDS011;5557;51.670;7.788;2023-12-04T13:27:09;6.73;;;6.33;;
11008;SDS011;5557;51.670;7.788;2023-12-04T13:29:37;7.40;;;5.77;;
11008;SDS011;5557;51.670;7.788;2023-12-04T13:32:04;5.90;;;5.60;;
11008;SDS011;5557;51.670;7.788;2023-12-04T13:34:32;6.40;;;5.77;;
11008;SDS011;5557;51.670;7.788;2023-12-04T13:37:00;6.40;;;6.10;;
11008;SDS011;5557;51.670;7.788;2023-12-04T13:39:27;7.73;;;7.30;;
11008;SDS011;5557;51.670;7.788;2023-12-04T13:42:14;7.10;;;6.67;;
11008;SDS011;5557;51.670;7.788;2023-12-04T13:45:00;6.00;;;5.67;;
11008;SDS011;5557;51.670;7.788;2023-12-04T13:47:31;7.63;;;7.13;;
11008;SDS011;5557;51.670;7.788;2023-12-04T13:50:01;6.40;;;5.80;;
11008;SDS011;5557;51.670;7.788;2023-12-04T13:52:29;6.53;;;6.13;;
11008;SDS011;5557;51.670;7.788;2023-12-04T13:55:00;6.93;;;6.53;;
11008;SDS011;5557;51.670;7.788;2023-12-04T13:57:27;6.00;;;5.70;;
11008;SDS011;5557;51.670;7.788;2023-12-04T13:59:59;6.83;;;6.27;;
11008;SDS011;5557;51.670;7.788;2023-12-04T14:02:26;6.70;;;6.20;;
11008;SDS011;5557;51.670;7.788;2023-12-04T14:04:54;6.63;;;6.30;;
11008;SDS011;5557;51.670;7.788;2023-12-04T14:07:22;6.00;;;5.70;;
11008;SDS011;5557;51.670;7.788;2023-12-04T14:09:51;7.73;;;6.00;;
11008;SDS011;5557;51.670;7.788;2023-12-04T14:12:19;7.20;;;6.07;;
11008;SDS011;5557;51.670;7.788;2023-12-04T14:14:46;6.43;;;6.03;;
11008;SDS011;5557;51.670;7.788;2023-12-04T14:17:13;7.00;;;6.30;;
11008;SDS011;5557;51.670;7.788;2023-12-04T14:19:40;6.50;;;6.10;;
11008;SDS011;5557;51.670;7.788;2023-12-04T14:22:07;6.50;;;6.10;;
11008;SDS011;5557;51.670;7.788;2023-12-04T14:24:35;6.93;;;6.43;;
11008;SDS011;5557;51.670;7.788;2023-12-04T14:27:02;7.27;;;6.77;;
11008;SDS011;5557;51.670;7.788;2023-12-04T14:29:29;6.30;;;5.90;;
11008;SDS011;5557;51.670;7.788;2023-12-04T14:31:56;6.70;;;6.27;;
11008;SDS011;5557;51.670;7.788;2023-12-04T14:34:25;7.13;;;6.73;;
11008;SDS011;5557;51.670;7.788;2023-12-04T14:36:52;7.00;;;6.70;;
11008;SDS011;5557;51.670;7.788;2023-12-04T14:39:21;8.23;;;7.80;;
11008;SDS011;5557;51.670;7.788;2023-12-04T14:41:48;7.80;;;7.40;;
11008;SDS011;5557;51.670;7.788;2023-12-04T14:44:16;10.20;;;9.30;;
11008;SDS011;5557;51.670;7.788;2023-12-04T14:46:43;9.53;;;8.73;;
11008;SDS011;5557;51.670;7.788;2023-12-04T14:49:11;8.90;;;8.30;;
11008;SDS011;5557;51.670;7.788;2023-12-04T14:51:38;9.73;;;8.67;;
11008;SDS011;5557;51.670;7.788;2023-12-04T14:54:05;14.20;;;10.03;;
11008;SDS011;5557;51.670;7.788;2023-12-04T14:56:49;9.50;;;8.87;;
11008;SDS011;5557;51.670;7.788;2023-12-04T14:59:51;10.37;;;9.50;;
11008;SDS011;5557;51.670;7.788;2023-12-04T15:02:39;9.60;;;8.90;;
11008;SDS011;5557;51.670;7.788;2023-12-04T15:05:25;10.60;;;9.70;;
11008;SDS011;5557;51.670;7.788;2023-12-04T15:08:30;9.80;;;9.00;;
11008;SDS011;5557;51.670;7.788;2023-12-04T15:11:16;10.50;;;9.80;;